Time;durP1;ratioP1;P1;durP2;ratioP2;P2;SDS_P1;SDS_P2;PMS_P1;PMS_P2;Temp;Humidity;BMP_temperature;BMP_pressure;BME280_temperature;BME280_humidity;BME280_pressure;Samples;Min_cycle;Max_cycle;Signal;HPM_P1;HPM_P2
2022/02/10 00:17:15;;;;;;;16.10;8.80;;;;;;;4.94;81.19;99109.45;105654;1290;136887;-74
2022/02/10 00:22:44;;;;;;;15.50;7.60;;;;;;;4.94;81.19;99111.81;105085;1290;136633;-74
2022/02/10 00:36:26;;;;;;;15.60;9.10;;;;;;;4.93;80.90;99123.42;105116;1289;22597;-74
2022/02/10 00:39:04;;;;;;;14.50;8.00;;;;;;;4.94;81.01;99119.03;105455;1289;25374;-74
2022/02/10 00:41:30;;;;;;;14.00;8.60;;;;;;;4.93;80.91;99119.35;104963;1290;137449;-74
2022/02/10 00:43:57;;;;;;;14.90;8.60;;;;;;;4.92;80.70;99114.64;105211;1289;24318;-74
2022/02/10 00:46:27;;;;;;;14.00;8.50;;;;;;;4.93;80.53;99117.23;105150;1289;137403;-74
2022/02/10 00:48:53;;;;;;;16.70;8.00;;;;;;;4.92;80.47;99116.90;105717;1290;22570;-74
2022/02/10 00:51:20;;;;;;;16.30;9.30;;;;;;;4.93;80.61;99119.02;105144;1290;137725;-74
2022/02/10 00:54:02;;;;;;;16.00;8.90;;;;;;;4.92;80.63;99120.84;105092;1290;22577;-74
2022/02/10 00:56:29;;;;;;;17.00;9.30;;;;;;;4.90;80.54;99116.57;104997;1290;23354;-74
2022/02/10 00:59:21;;;;;;;17.60;8.90;;;;;;;4.90;80.51;99113.95;104564;1291;137951;-74
2022/02/10 01:32:03;;;;;;;14.50;7.70;;;;;;;4.90;79.80;99093.23;104635;1290;22585;-74
2022/02/10 01:34:33;;;;;;;12.30;7.10;;;;;;;4.91;79.72;99093.34;104419;1291;137546;-74
2022/02/10 01:37:00;;;;;;;12.60;7.30;;;;;;;4.93;79.82;99085.21;105117;1290;23093;-74
2022/02/10 01:39:31;;;;;;;12.80;7.20;;;;;;;4.94;79.73;99087.17;104732;1290;137064;-74
2022/02/10 01:42:47;;;;;;;14.60;7.60;;;;;;;4.95;79.66;99080.55;105038;1290;22585;-73
2022/02/10 02:04:25;;;;;;;15.50;7.70;;;;;;;4.95;79.70;99073.95;105716;1283;136841;-74
2022/02/10 02:06:54;;;;;;;;;;;;;;;4.94;79.79;99074.23;105570;1284;22688;-74
2022/02/10 02:09:21;;;;;;;15.10;8.10;;;;;;;4.92;79.73;99072.27;105642;1281;22565;-74
2022/02/10 02:11:52;;;;;;;14.80;8.70;;;;;;;4.89;79.64;99073.05;105587;1282;136853;-74
2022/02/10 02:14:21;;;;;;;16.40;8.40;;;;;;;4.88;79.73;99069.02;105495;1282;22576;-74
2022/02/10 02:17:02;;;;;;;13.50;7.00;;;;;;;4.89;79.71;99068.94;106088;1281;137162;-75
2022/02/10 02:19:32;;;;;;;13.10;8.20;;;;;;;4.89;79.64;99065.91;105758;1282;25365;-75
2022/02/10 02:22:08;;;;;;;;;;;;;;;4.88;79.74;99063.62;105874;1283;137309;-76
2022/02/10 02:24:36;;;;;;;15.30;8.40;;;;;;;4.88;79.76;99063.86;105668;1283;22648;-77
2022/02/10 02:27:05;;;;;;;13.30;7.30;;;;;;;4.86;79.77;99061.02;106012;1283;24335;-77
2022/02/10 02:29:48;;;;;;;13.80;7.90;;;;;;;4.85;79.66;99067.37;105702;1282;137171;-76
2022/02/10 02:32:22;;;;;;;11.90;6.70;;;;;;;4.84;79.49;99062.52;105805;1281;25323;-73
2022/02/10 02:37:59;;;;;;;10.80;7.20;;;;;;;4.88;79.25;99063.45;105737;1283;24265;-74
2022/02/10 03:07:50;;;;;;;11.20;7.90;;;;;;;4.77;79.44;99055.14;105809;1283;22833;-74
2022/02/10 03:12:43;;;;;;;13.40;7.60;;;;;;;4.77;79.50;99056.13;105733;1283;24227;-74
2022/02/10 03:15:23;;;;;;;14.60;7.30;;;;;;;4.78;79.46;99059.59;105872;1283;25538;-74
2022/02/10 03:20:52;;;;;;;13.30;7.60;;;;;;;4.77;79.49;99060.60;105849;1283;22570;-74
2022/02/10 04:05:05;;;;;;;74.20;27.20;;;;;;;4.80;79.60;99031.48;105944;1280;137600;-74
2022/02/10 05:07:17;;;;;;;12.60;9.20;;;;;;;4.74;79.48;99022.77;105976;1280;137489;-74
2022/02/10 05:14:09;;;;;;;16.50;10.40;;;;;;;4.71;79.70;99018.51;106025;1280;137265;-74
2022/02/10 05:23:41;;;;;;;;;;;;;;;4.74;79.71;99012.39;106113;1280;138080;-74
2022/02/10 05:32:14;;;;;;;18.00;11.30;;;;;;;4.71;79.93;99012.52;106154;1280;24069;-74
2022/02/10 05:34:44;;;;;;;15.50;10.80;;;;;;;4.73;79.83;99017.02;106038;1281;138093;-74
2022/02/10 05:37:30;;;;;;;23.50;14.10;;;;;;;4.74;80.04;99017.58;105991;1279;22893;-74
2022/02/10 05:40:01;;;;;;;26.90;15.90;;;;;;;4.75;80.05;99016.92;105994;1281;24437;-74
2022/02/10 05:43:16;;;;;;;29.40;17.40;;;;;;;4.76;80.07;99014.81;105677;1280;137199;-74
2022/02/10 05:46:03;;;;;;;23.60;13.70;;;;;;;4.73;80.11;99015.16;105949;1280;31938;-74
2022/02/10 06:02:52;;;;;;;26.40;14.20;;;;;;;4.74;80.00;99026.99;105909;1280;24360;-74
2022/02/10 06:49:02;;;;;;;24.00;13.30;;;;;;;4.84;80.04;99028.41;105753;1282;137585;-74
2022/02/10 06:51:43;;;;;;;27.70;14.10;;;;;;;4.85;79.97;99030.88;105890;1283;24384;-74
2022/02/10 06:57:19;;;;;;;34.20;17.40;;;;;;;4.86;79.98;99029.05;106166;1283;24329;-74
2022/02/10 07:06:05;;;;;;;22.60;12.20;;;;;;;4.93;79.88;99019.91;106415;1280;137798;-74
2022/02/10 07:09:15;;;;;;;24.70;13.80;;;;;;;4.95;79.66;99019.17;106863;1280;29825;-74
2022/02/10 07:57:38;;;;;;;34.00;17.50;;;;;;;5.56;78.89;98996.33;106097;1277;24267;-73
2022/02/10 08:29:28;;;;;;;21.50;12.70;;;;;;;6.00;78.45;98979.93;106225;1280;22578;-74
2022/02/10 08:55:33;;;;;;;21.50;12.50;;;;;;;6.41;77.12;98959.19;106134;1279;137513;-75
2022/02/10 09:58:31;;;;;;;22.20;14.00;;;;;;;7.22;73.92;98936.73;106487;1278;22605;-73
2022/02/10 10:01:23;;;;;;;23.50;13.70;;;;;;;7.24;73.57;98934.77;105759;1278;137298;-74
2022/02/10 10:03:56;;;;;;;20.60;13.40;;;;;;;7.28;73.54;98934.14;106230;1277;22580;-73
2022/02/10 10:21:32;;;;;;;17.60;12.00;;;;;;;7.54;72.79;98902.13;105830;1277;137347;-74
2022/02/10 10:56:53;;;;;;;16.20;9.50;;;;;;;8.09;71.39;98842.18;105894;1278;137338;-74
2022/02/10 11:39:25;;;;;;;8.10;5.60;;;;;;;8.90;66.66;98744.71;105818;1279;137341;-74
2022/02/10 11:42:21;;;;;;;9.60;5.70;;;;;;;8.90;65.95;98736.80;107090;1279;24305;-74
2022/02/10 12:44:02;;;;;;;16.50;7.30;;;;;;;9.37;64.13;98662.82;105800;1277;137639;-74
2022/02/10 14:11:31;;;;;;;10.20;6.10;;;;;;;10.40;59.58;98568.27;106988;1277;22562;-74
2022/02/10 14:14:07;;;;;;;9.90;5.70;;;;;;;10.24;60.33;98566.40;106395;1278;138352;-74
2022/02/10 14:16:59;;;;;;;11.00;5.70;;;;;;;10.16;60.51;98565.35;106046;1277;24216;-74
2022/02/10 14:19:37;;;;;;;11.70;5.80;;;;;;;10.19;60.58;98560.98;106252;1278;22575;-74
2022/02/10 14:22:24;;;;;;;8.80;5.20;;;;;;;10.24;60.88;98560.57;107539;1277;137493;-74
2022/02/10 14:28:08;;;;;;;;;;;;;;;10.33;60.80;98556.21;106665;1277;137668;-74
2022/02/10 14:31:37;;;;;;;6.80;4.80;;;;;;;10.34;60.67;98554.42;107098;1279;26670;-74
2022/02/10 14:34:23;;;;;;;8.70;4.90;;;;;;;10.26;60.73;98554.78;106791;1277;137370;-74
2022/02/10 14:36:59;;;;;;;9.60;5.00;;;;;;;10.19;60.94;98550.01;106232;1278;24584;-74
2022/02/10 14:39:53;;;;;;;10.10;4.60;;;;;;;10.13;60.88;98551.94;106648;1277;137084;-74
2022/02/10 16:11:35;;;;;;;9.20;4.50;;;;;;;8.00;66.37;98486.58;106198;1278;23960;-74
2022/02/10 16:16:53;;;;;;;9.50;5.40;;;;;;;7.87;66.52;98474.73;105929;1280;136599;-74
2022/02/10 16:19:22;;;;;;;11.30;6.20;;;;;;;7.81;66.64;98473.06;106162;1279;22551;-74
2022/02/10 16:22:06;;;;;;;11.10;6.00;;;;;;;7.75;66.66;98475.14;105923;1277;137055;-74
2022/02/10 16:24:46;;;;;;;12.40;6.80;;;;;;;7.69;66.67;98472.50;106450;1277;22689;-73
2022/02/10 16:27:34;;;;;;;12.70;6.30;;;;;;;7.63;67.12;98458.27;105943;1277;140419;-73
2022/02/10 16:30:20;;;;;;;12.00;6.40;;;;;;;7.55;67.31;98459.89;106356;1278;22574;-74
2022/02/10 16:32:49;;;;;;;10.00;6.10;;;;;;;7.49;67.36;98460.09;106818;1277;137090;-74
2022/02/10 16:35:39;;;;;;;10.60;6.30;;;;;;;7.40;67.89;98455.34;106316;1280;23431;-74
2022/02/10 16:38:05;;;;;;;10.30;5.50;;;;;;;7.35;68.02;98452.15;106206;1277;25315;-74
2022/02/10 16:40:33;;;;;;;15.10;6.70;;;;;;;7.32;68.21;98450.42;106515;1277;137441;-74
2022/02/10 16:43:00;;;;;;;15.40;7.70;;;;;;;7.31;68.37;98449.02;106127;1277;24437;-74
2022/02/10 16:45:28;;;;;;;17.60;9.00;;;;;;;7.29;68.25;98449.41;106028;1277;137661;-74
2022/02/10 16:47:56;;;;;;;20.30;9.70;;;;;;;7.28;68.58;98446.77;106032;1277;25639;-74
2022/02/10 16:50:24;;;;;;;19.40;9.80;;;;;;;7.25;68.66;98448.20;105949;1278;137916;-74
2022/02/10 16:52:59;;;;;;;20.00;11.20;;;;;;;7.24;68.74;98451.42;105999;1278;25432;-74
2022/02/10 17:19:46;;;;;;;26.30;12.40;;;;;;;6.77;69.13;98440.18;105865;1277;24326;-76
2022/02/10 17:25:45;;;;;;;15.60;8.60;;;;;;;6.73;69.67;98432.05;106230;1277;24319;-75
2022/02/10 17:28:12;;;;;;;17.40;9.60;;;;;;;6.71;69.89;98428.45;105958;1277;137163;-74
2022/02/10 17:31:19;;;;;;;16.80;8.60;;;;;;;6.68;69.95;98425.73;105957;1278;25320;-74
2022/02/10 17:45:48;;;;;;;25.10;14.20;;;;;;;6.44;70.36;98427.27;105882;1278;137320;-74
2022/02/10 17:51:43;;;;;;;29.30;16.70;;;;;;;6.34;70.49;98430.96;106272;1277;137985;-74
2022/02/10 17:54:28;;;;;;;27.10;14.70;;;;;;;6.33;70.91;98427.10;105711;1278;22568;-74
2022/02/10 17:56:56;;;;;;;26.30;13.70;;;;;;;6.33;70.79;98428.55;106002;1277;138297;-74
2022/02/10 17:59:24;;;;;;;23.60;13.30;;;;;;;6.34;70.82;98438.12;106131;1277;22635;-74
2022/02/10 18:01:52;;;;;;;25.90;12.70;;;;;;;6.33;70.81;98440.41;106265;1277;22730;-74
2022/02/10 18:04:20;;;;;;;28.30;13.70;;;;;;;6.32;70.94;98446.71;105923;1277;138490;-74
2022/02/10 18:06:54;;;;;;;22.40;13.00;;;;;;;6.29;71.04;98449.63;106240;1277;24268;-74
2022/02/10 18:12:44;;;;;;;35.00;17.80;;;;;;;6.23;71.05;98457.16;105942;1277;22732;-76
2022/02/10 18:14:58;;;;;;;36.10;18.80;;;;;;;6.19;71.11;98452.69;106010;1278;137660;-75
2022/02/10 18:17:37;;;;;;;46.60;19.80;;;;;;;6.14;70.99;98456.63;106403;1277;22711;-76
2022/02/10 18:20:11;;;;;;;;;;;;;;;6.11;71.28;98457.64;106539;1277;22569;-75
2022/02/10 18:22:51;;;;;;;51.80;20.10;;;;;;;6.10;71.43;98463.08;106348;1277;124425;-75
2022/02/10 18:25:48;;;;;;;46.20;21.50;;;;;;;6.08;71.63;98464.36;106143;1277;22699;-75
2022/02/10 18:28:49;;;;;;;48.50;23.00;;;;;;;6.07;71.66;98471.23;106227;1277;137803;-76
2022/02/10 19:08:18;;;;;;;45.80;22.30;;;;;;;5.66;73.13;98470.52;106552;1277;22716;-74
2022/02/10 19:11:03;;;;;;;43.70;20.80;;;;;;;5.63;73.19;98469.96;106190;1277;137806;-74
2022/02/10 19:13:31;;;;;;;45.90;20.70;;;;;;;5.64;73.39;98467.14;106055;1280;25279;-74
2022/02/10 19:15:59;;;;;;;41.10;19.60;;;;;;;5.66;73.40;98470.83;106064;1278;137255;-74
2022/02/10 19:18:26;;;;;;;42.20;19.80;;;;;;;5.67;73.53;98475.17;106243;1277;25365;-74
2022/02/10 19:20:52;;;;;;;41.20;22.00;;;;;;;5.68;73.52;98473.92;105947;1277;137488;-74
2022/02/10 19:23:23;;;;;;;43.70;22.30;;;;;;;5.70;73.65;98471.34;106286;1277;24182;-74
2022/02/10 19:25:56;;;;;;;39.80;20.90;;;;;;;5.70;73.54;98470.52;106312;1277;22579;-74
2022/02/10 19:28:43;;;;;;;43.70;21.40;;;;;;;5.70;73.72;98476.83;106127;1278;138198;-74
2022/02/10 19:31:38;;;;;;;43.00;21.20;;;;;;;5.69;73.71;98479.74;106699;1277;25775;-76
2022/02/10 19:35:51;;;;;;;42.60;19.80;;;;;;;5.74;73.79;98474.40;103489;1306;545370;-73
2022/02/10 19:38:43;;;;;;;45.10;22.90;;;;;;;5.76;73.89;98475.56;105120;1289;137029;-74
2022/02/10 19:41:31;;;;;;;47.60;24.00;;;;;;;5.79;73.88;98464.41;104797;1292;24326;-73
2022/02/10 19:44:04;;;;;;;45.90;24.90;;;;;;;5.81;73.92;98467.94;104735;1292;22733;-74
2022/02/10 19:47:04;;;;;;;56.40;27.50;;;;;;;5.81;73.81;98475.35;104793;1292;136343;-74
2022/02/10 19:51:10;;;;;;;53.50;26.50;;;;;;;5.82;73.71;98476.42;103381;1307;545175;-74
2022/02/10 19:54:02;;;;;;;57.70;28.00;;;;;;;5.78;73.82;98472.07;104647;1294;25769;-74
2022/02/10 19:56:58;;;;;;;58.70;29.10;;;;;;;5.76;73.90;98467.17;105244;1293;137404;-75
2022/02/10 19:59:31;;;;;;;60.40;30.00;;;;;;;5.76;73.98;98465.27;105206;1293;22677;-74
2022/02/10 20:02:02;;;;;;;54.20;27.40;;;;;;;5.74;74.08;98473.33;104841;1292;22585;-74
2022/02/10 20:04:31;;;;;;;52.90;28.30;;;;;;;5.75;74.12;98473.45;104792;1290;324201;-74
2022/02/10 20:06:59;;;;;;;55.80;26.30;;;;;;;5.76;74.35;98468.58;104833;1291;23489;-74
2022/02/10 20:09:41;;;;;;;54.10;26.50;;;;;;;5.77;74.30;98473.70;105754;1290;136644;-74
2022/02/10 20:12:11;;;;;;;52.50;25.80;;;;;;;5.76;74.18;98475.40;105637;1290;22586;-74
2022/02/10 20:14:40;;;;;;;52.40;24.30;;;;;;;5.75;74.15;98471.08;105625;1289;137481;-74
2022/02/10 20:17:12;;;;;;;51.80;24.70;;;;;;;5.73;74.10;98473.70;105661;1290;22593;-74
2022/02/10 20:19:43;;;;;;;46.00;22.50;;;;;;;5.74;74.16;98479.23;105863;1290;22706;-74
2022/02/10 20:22:12;;;;;;;47.10;21.40;;;;;;;5.76;74.31;98483.52;105240;1290;137348;-74
2022/02/10 20:24:42;;;;;;;44.50;20.50;;;;;;;5.79;74.25;98489.73;105012;1290;22605;-74
2022/02/10 20:27:09;;;;;;;46.90;23.00;;;;;;;5.82;74.12;98490.84;105088;1290;137209;-74
2022/02/10 20:29:37;;;;;;;47.60;26.30;;;;;;;5.85;74.35;98493.08;104978;1291;22569;-74
2022/02/10 20:32:07;;;;;;;62.00;30.10;;;;;;;5.87;74.35;98495.69;104890;1290;22581;-74
2022/02/10 20:34:38;;;;;;;56.90;29.20;;;;;;;5.89;74.33;98494.40;104965;1290;136833;-74
2022/02/10 20:37:06;;;;;;;51.50;25.70;;;;;;;5.89;74.14;98493.39;104943;1290;22589;-74
2022/02/10 20:39:39;;;;;;;48.40;22.60;;;;;;;5.89;74.22;98491.98;105077;1287;137437;-74
2022/02/10 20:42:21;;;;;;;42.60;21.80;;;;;;;5.88;74.01;98487.51;105613;1286;22625;-74
2022/02/10 20:44:53;;;;;;;41.10;21.20;;;;;;;5.88;73.82;98487.66;105259;1286;138359;-74
2022/02/10 20:47:35;;;;;;;48.10;23.20;;;;;;;5.90;73.79;98487.31;105630;1287;22556;-73
2022/02/10 20:50:04;;;;;;;43.90;21.70;;;;;;;5.92;74.01;98485.36;105303;1287;25557;-74
2022/02/10 20:52:33;;;;;;;;;;;;;;;5.93;74.05;98489.01;105658;1287;137081;-74
2022/02/10 20:55:03;;;;;;;48.40;23.70;;;;;;;5.92;74.16;98488.72;105469;1287;24380;-74
2022/02/10 20:57:30;;;;;;;55.00;26.00;;;;;;;5.91;73.86;98487.90;105083;1287;136933;-74
2022/02/10 20:59:57;;;;;;;54.00;25.70;;;;;;;5.89;74.08;98487.19;105257;1287;22588;-74
2022/02/10 21:05:38;;;;;;;57.70;27.40;;;;;;;5.86;74.10;98483.05;106015;1287;22745;-74
2022/02/10 21:11:45;;;;;;;57.40;26.40;;;;;;;5.86;73.92;98479.77;105806;1284;137276;-74
2022/02/10 21:15:02;;;;;;;61.50;27.80;;;;;;;5.88;74.17;98472.83;106823;1284;31540;-74
2022/02/10 21:18:42;;;;;;;59.90;27.40;;;;;;;5.90;74.13;98468.90;104190;1305;564373;-74
2022/02/10 21:21:47;;;;;;;55.70;26.90;;;;;;;5.89;74.01;98471.32;104129;1308;35936;-74
2022/02/10 21:24:31;;;;;;;54.70;24.70;;;;;;;5.88;73.84;98468.88;105319;1290;136582;-74
2022/02/10 21:30:08;;;;;;;59.40;29.60;;;;;;;5.87;74.16;98478.22;105763;1289;136500;-74
2022/02/10 21:33:07;;;;;;;58.00;26.80;;;;;;;5.87;74.22;98478.02;101375;1287;6121275;-74
2022/02/10 21:39:25;;;;;;;44.50;21.10;;;;;;;5.92;73.94;98476.83;105213;1290;24295;-74
2022/02/10 21:48:00;;;;;;;38.20;16.40;;;;;;;5.98;73.82;98468.93;105283;1289;136788;-74
2022/02/10 21:58:07;;;;;;;32.80;15.60;;;;;;;6.12;73.67;98482.05;105446;1287;25372;-75
2022/02/10 22:00:00;;;;;;;25.90;12.90;;;;;;;6.18;73.42;98478.83;104881;1287;137102;-74
2022/02/10 22:18:58;;;;;;;22.60;11.70;;;;;;;6.44;72.78;98488.02;105466;1289;22598;-74
2022/02/10 22:21:30;;;;;;;17.70;9.50;;;;;;;6.44;72.83;98487.03;105362;1289;24375;-74
2022/02/10 22:24:00;;;;;;;21.50;10.60;;;;;;;6.44;72.48;98491.74;105265;1290;137966;-74
2022/02/10 22:26:30;;;;;;;22.50;10.70;;;;;;;6.46;72.66;98494.55;105229;1289;25565;-74
2022/02/10 22:29:16;;;;;;;21.20;10.20;;;;;;;6.49;72.39;98488.51;104888;1289;137554;-74
2022/02/10 22:34:41;;;;;;;22.20;10.80;;;;;;;6.56;72.65;98492.25;105058;1289;137509;-74
2022/02/10 22:37:18;;;;;;;19.70;10.60;;;;;;;6.57;72.32;98493.36;105202;1289;23261;-74
2022/02/10 22:39:48;;;;;;;20.30;9.90;;;;;;;6.58;72.20;98494.06;105274;1289;23125;-74
2022/02/10 22:42:22;;;;;;;19.50;9.30;;;;;;;6.59;72.41;98502.02;105057;1289;136750;-74
2022/02/10 22:45:03;;;;;;;22.10;10.00;;;;;;;6.59;72.42;98504.09;105158;1289;25338;-74
2022/02/10 22:47:31;;;;;;;18.70;9.60;;;;;;;6.58;71.96;98506.02;105022;1289;136811;-76
2022/02/10 22:49:59;;;;;;;15.20;8.60;;;;;;;6.59;71.94;98504.27;105376;1289;22600;-76
2022/02/10 22:52:26;;;;;;;21.60;9.80;;;;;;;6.60;71.99;98503.83;105434;1289;22575;-76
2022/02/10 22:54:53;;;;;;;18.30;8.40;;;;;;;6.63;71.71;98502.48;105239;1289;136941;-75
2022/02/10 22:57:21;;;;;;;21.20;10.00;;;;;;;6.67;71.74;98512.54;105029;1289;22688;-74
2022/02/10 23:00:07;;;;;;;14.50;8.80;;;;;;;6.69;71.74;98507.63;105416;1290;137411;-74
2022/02/10 23:02:35;;;;;;;17.40;8.90;;;;;;;6.72;71.62;98516.71;105217;1290;25271;-74
2022/02/10 23:05:03;;;;;;;19.60;8.90;;;;;;;6.71;71.57;98516.75;104837;1289;138375;-74
2022/02/10 23:07:31;;;;;;;17.00;9.40;;;;;;;6.71;71.65;98517.30;104993;1290;22601;-74
2022/02/10 23:12:44;;;;;;;18.40;8.30;;;;;;;6.68;71.63;98525.73;104893;1289;137286;-74
2022/02/10 23:15:11;;;;;;;21.30;10.20;;;;;;;6.67;71.63;98523.36;105411;1289;23473;-74
2022/02/10 23:17:40;;;;;;;18.90;9.60;;;;;;;6.68;71.63;98525.94;105141;1289;137406;-74
2022/02/10 23:20:08;;;;;;;21.10;8.90;;;;;;;6.69;71.78;98521.80;105296;1289;25274;-75
2022/02/10 23:22:53;;;;;;;17.50;9.20;;;;;;;6.69;71.89;98531.50;105253;1289;137033;-74
2022/02/10 23:25:23;;;;;;;17.40;8.80;;;;;;;6.69;71.63;98534.75;105249;1289;22624;-74
2022/02/10 23:27:51;;;;;;;17.60;9.00;;;;;;;6.67;72.06;98538.30;105039;1289;22575;-74
2022/02/10 23:30:22;;;;;;;15.80;8.60;;;;;;;6.65;71.87;98541.98;105155;1290;137074;-77
2022/02/10 23:32:53;;;;;;;19.20;9.40;;;;;;;6.63;72.07;98545.66;105332;1290;26701;-74
2022/02/10 23:36:09;;;;;;;15.50;8.50;;;;;;;6.60;72.13;98546.73;105238;1290;136778;-75
2022/02/10 23:38:07;;;;;;;14.50;8.20;;;;;;;6.58;72.08;98549.92;105485;1288;22731;-74
2022/02/10 23:40:45;;;;;;;19.10;9.80;;;;;;;6.58;72.23;98546.80;105265;1289;137917;-76
2022/02/10 23:43:13;;;;;;;17.40;10.00;;;;;;;6.60;72.37;98552.61;105182;1289;25495;-74
2022/02/10 23:45:43;;;;;;;15.40;9.00;;;;;;;6.61;72.38;98556.41;105373;1289;22578;-74
2022/02/10 23:48:11;;;;;;;17.40;7.90;;;;;;;6.62;72.33;98556.10;105276;1289;137257;-75
2022/02/10 23:50:38;;;;;;;16.10;8.90;;;;;;;6.62;72.28;98557.73;105366;1289;22575;-75
2022/02/10 23:53:05;;;;;;;17.70;9.00;;;;;;;6.61;72.27;98558.77;105090;1289;136944;-74
2022/02/10 23:55:36;;;;;;;20.50;8.90;;;;;;;6.60;72.45;98558.19;105263;1289;23526;-74
